sensor_id;sensor_type;location;lat;lon;timestamp;pressure;altitude;pressure_sealevel;temperature;humidity
59103;BME280;43999;51.660;5.616;2023-10-09T00:00:55;101817.91;;;13.88;100.00
59103;BME280;43999;51.660;5.616;2023-10-09T00:03:49;101818.81;;;13.87;100.00
59103;BME280;43999;51.660;5.616;2023-10-09T00:06:41;101823.19;;;13.88;100.00
59103;BME280;43999;51.660;5.616;2023-10-09T00:09:30;101821.47;;;13.87;100.00
59103;BME280;43999;51.660;5.616;2023-10-09T00:12:20;101830.28;;;13.86;100.00
59103;BME280;43999;51.660;5.616;2023-10-09T00:15:13;101819.75;;;13.86;100.00
59103;BME280;43999;51.660;5.616;2023-10-09T00:18:01;101811.84;;;13.86;100.00
59103;BME280;43999;51.660;5.616;2023-10-09T00:21:00;101800.53;;;13.84;100.00
59103;BME280;43999;51.660;5.616;2023-10-09T00:24:00;101802.25;;;13.85;100.00
59103;BME280;43999;51.660;5.616;2023-10-09T00:26:54;101789.16;;;13.84;100.00
59103;BME280;43999;51.660;5.616;2023-10-09T00:30:01;101803.25;;;13.83;100.00
59103;BME280;43999;51.660;5.616;2023-10-09T00:32:51;101790.09;;;13.83;100.00
59103;BME280;43999;51.660;5.616;2023-10-09T00:35:55;101795.34;;;13.83;100.00
59103;BME280;43999;51.660;5.616;2023-10-09T00:38:44;101783.97;;;13.82;100.00
59103;BME280;43999;51.660;5.616;2023-10-09T00:41:39;101780.41;;;13.83;100.00
59103;BME280;43999;51.660;5.616;2023-10-09T00:44:29;101786.53;;;13.84;100.00
59103;BME280;43999;51.660;5.616;2023-10-09T00:47:25;101794.44;;;13.84;100.00
59103;BME280;43999;51.660;5.616;2023-10-09T00:50:22;101797.84;;;13.86;100.00
59103;BME280;43999;51.660;5.616;2023-10-09T00:53:12;101801.06;;;13.91;100.00
59103;BME280;43999;51.660;5.616;2023-10-09T00:56:06;101799.31;;;13.91;100.00
59103;BME280;43999;51.660;5.616;2023-10-09T00:59:13;101790.38;;;13.94;100.00
59103;BME280;43999;51.660;5.616;2023-10-09T01:02:05;101797.34;;;13.95;100.00
59103;BME280;43999;51.660;5.616;2023-10-09T01:04:56;101795.47;;;13.97;100.00
59103;BME280;43999;51.660;5.616;2023-10-09T01:07:46;101793.53;;;14.01;100.00
59103;BME280;43999;51.660;5.616;2023-10-09T01:10:46;101789.03;;;14.03;100.00
59103;BME280;43999;51.660;5.616;2023-10-09T01:13:53;101782.59;;;14.08;100.00
59103;BME280;43999;51.660;5.616;2023-10-09T01:16:41;101792.09;;;14.11;100.00
59103;BME280;43999;51.660;5.616;2023-10-09T01:19:30;101791.94;;;14.14;100.00
59103;BME280;43999;51.660;5.616;2023-10-09T01:22:21;101784.75;;;14.18;100.00
59103;BME280;43999;51.660;5.616;2023-10-09T01:25:09;101790.69;;;14.21;100.00
59103;BME280;43999;51.660;5.616;2023-10-09T01:27:57;101793.91;;;14.26;100.00
59103;BME280;43999;51.660;5.616;2023-10-09T01:30:45;101782.44;;;14.27;100.00
59103;BME280;43999;51.660;5.616;2023-10-09T01:33:34;101787.47;;;14.32;100.00
59103;BME280;43999;51.660;5.616;2023-10-09T01:36:25;101784.56;;;14.37;100.00
59103;BME280;43999;51.660;5.616;2023-10-09T01:39:23;101787.06;;;14.40;100.00
59103;BME280;43999;51.660;5.616;2023-10-09T01:42:12;101781.53;;;14.44;100.00
59103;BME280;43999;51.660;5.616;2023-10-09T01:45:12;101784.84;;;14.48;100.00
59103;BME280;43999;51.660;5.616;2023-10-09T01:48:06;101778.47;;;14.52;100.00
59103;BME280;43999;51.660;5.616;2023-10-09T01:50:57;101777.41;;;14.55;100.00
59103;BME280;43999;51.660;5.616;2023-10-09T01:53:45;101774.59;;;14.58;100.00
59103;BME280;43999;51.660;5.616;2023-10-09T01:56:43;101771.84;;;14.61;100.00
59103;BME280;43999;51.660;5.616;2023-10-09T01:59:35;101775.16;;;14.64;100.00
59103;BME280;43999;51.660;5.616;2023-10-09T02:02:26;101761.81;;;14.67;100.00
59103;BME280;43999;51.660;5.616;2023-10-09T02:05:15;101769.56;;;14.70;100.00
59103;BME280;43999;51.660;5.616;2023-10-09T02:08:05;101767.56;;;14.74;100.00
59103;BME280;43999;51.660;5.616;2023-10-09T02:10:56;101777.13;;;14.77;100.00
59103;BME280;43999;51.660;5.616;2023-10-09T02:13:45;101778.72;;;14.79;100.00
59103;BME280;43999;51.660;5.616;2023-10-09T02:16:44;101769.88;;;14.80;100.00
59103;BME280;43999;51.660;5.616;2023-10-09T02:19:32;101771.50;;;14.83;100.00
59103;BME280;43999;51.660;5.616;2023-10-09T02:22:27;101760.06;;;14.82;100.00
59103;BME280;43999;51.660;5.616;2023-10-09T02:25:15;101745.09;;;14.83;100.00
59103;BME280;43999;51.660;5.616;2023-10-09T02:28:08;101757.06;;;14.88;100.00
59103;BME280;43999;51.660;5.616;2023-10-09T02:31:12;101762.28;;;14.90;100.00
59103;BME280;43999;51.660;5.616;2023-10-09T02:34:01;101747.22;;;14.92;100.00
59103;BME280;43999;51.660;5.616;2023-10-09T02:36:56;101744.50;;;14.94;100.00
59103;BME280;43999;51.660;5.616;2023-10-09T02:39:53;101740.06;;;14.94;100.00
59103;BME280;43999;51.660;5.616;2023-10-09T02:42:43;101745.34;;;14.94;100.00
59103;BME280;43999;51.660;5.616;2023-10-09T02:45:32;101733.94;;;14.94;100.00
59103;BME280;43999;51.660;5.616;2023-10-09T02:48:25;101726.00;;;14.94;100.00
59103;BME280;43999;51.660;5.616;2023-10-09T02:51:14;101731.28;;;14.94;100.00
59103;BME280;43999;51.660;5.616;2023-10-09T02:54:18;101734.94;;;14.91;100.00
59103;BME280;43999;51.660;5.616;2023-10-09T02:57:09;101723.56;;;14.91;100.00
59103;BME280;43999;51.660;5.616;2023-10-09T03:00:09;101732.31;;;14.91;100.00
59103;BME280;43999;51.660;5.616;2023-10-09T03:03:06;101727.03;;;14.91;100.00
59103;BME280;43999;51.660;5.616;2023-10-09T03:05:56;101738.44;;;14.92;100.00
59103;BME280;43999;51.660;5.616;2023-10-09T03:08:44;101735.69;;;14.93;100.00
59103;BME280;43999;51.660;5.616;2023-10-09T03:11:35;101726.84;;;14.94;100.00
59103;BME280;43999;51.660;5.616;2023-10-09T03:14:30;101729.50;;;14.94;100.00
59103;BME280;43999;51.660;5.616;2023-10-09T03:17:22;101711.88;;;14.95;100.00
59103;BME280;43999;51.660;5.616;2023-10-09T03:20:10;101705.75;;;14.94;100.00
59103;BME280;43999;51.660;5.616;2023-10-09T03:23:02;101706.59;;;14.95;100.00
59103;BME280;43999;51.660;5.616;2023-10-09T03:25:50;101710.19;;;14.94;100.00
59103;BME280;43999;51.660;5.616;2023-10-09T03:28:47;101715.47;;;14.94;100.00
59103;BME280;43999;51.660;5.616;2023-10-09T03:31:39;101714.59;;;14.93;100.00
59103;BME280;43999;51.660;5.616;2023-10-09T03:34:31;101689.06;;;14.94;100.00
59103;BME280;43999;51.660;5.616;2023-10-09T03:37:19;101682.09;;;14.93;100.00
59103;BME280;43999;51.660;5.616;2023-10-09T03:40:24;101690.84;;;14.93;100.00
59103;BME280;43999;51.660;5.616;2023-10-09T03:43:12;101690.00;;;14.93;100.00
59103;BME280;43999;51.660;5.616;2023-10-09T03:46:01;101687.38;;;14.93;100.00
59103;BME280;43999;51.660;5.616;2023-10-09T03:48:51;101695.28;;;14.93;100.00
59103;BME280;43999;51.660;5.616;2023-10-09T03:51:44;101700.56;;;14.93;100.00
59103;BME280;43999;51.660;5.616;2023-10-09T03:54:33;101700.47;;;14.94;100.00
59103;BME280;43999;51.660;5.616;2023-10-09T03:57:23;101695.09;;;14.96;100.00
59103;BME280;43999;51.660;5.616;2023-10-09T04:00:14;101692.38;;;14.97;100.00
59103;BME280;43999;51.660;5.616;2023-10-09T04:03:04;101694.06;;;14.98;100.00
59103;BME280;43999;51.660;5.616;2023-10-09T04:05:53;101683.34;;;15.01;100.00
59103;BME280;43999;51.660;5.616;2023-10-09T04:08:41;101672.78;;;15.01;100.00
59103;BME280;43999;51.660;5.616;2023-10-09T04:11:36;101672.78;;;15.01;100.00
59103;BME280;43999;51.660;5.616;2023-10-09T04:14:24;101668.44;;;15.00;100.00
59103;BME280;43999;51.660;5.616;2023-10-09T04:17:20;101675.34;;;15.03;100.00
59103;BME280;43999;51.660;5.616;2023-10-09T04:20:21;101674.38;;;15.04;100.00
59103;BME280;43999;51.660;5.616;2023-10-09T04:23:10;101677.78;;;15.06;100.00
59103;BME280;43999;51.660;5.616;2023-10-09T04:26:04;101676.81;;;15.07;100.00
59103;BME280;43999;51.660;5.616;2023-10-09T04:29:02;101679.28;;;15.10;100.00
59103;BME280;43999;51.660;5.616;2023-10-09T04:31:56;101688.81;;;15.13;100.00
59103;BME280;43999;51.660;5.616;2023-10-09T04:34:48;101716.94;;;15.14;100.00
59103;BME280;43999;51.660;5.616;2023-10-09T04:37:36;101720.41;;;15.14;100.00
59103;BME280;43999;51.660;5.616;2023-10-09T04:40:25;101701.00;;;15.15;100.00
59103;BME280;43999;51.660;5.616;2023-10-09T04:43:43;101720.41;;;15.14;100.00
59103;BME280;43999;51.660;5.616;2023-10-09T04:46:32;101723.88;;;15.15;100.00
59103;BME280;43999;51.660;5.616;2023-10-09T04:49:35;101725.69;;;15.14;100.00
59103;BME280;43999;51.660;5.616;2023-10-09T04:52:50;101732.06;;;15.10;100.00
59103;BME280;43999;51.660;5.616;2023-10-09T04:55:41;101732.84;;;15.12;100.00
59103;BME280;43999;51.660;5.616;2023-10-09T04:58:42;101720.50;;;15.13;100.00
59103;BME280;43999;51.660;5.616;2023-10-09T05:01:50;101722.31;;;15.12;100.00
59103;BME280;43999;51.660;5.616;2023-10-09T05:04:53;101720.59;;;15.11;100.00
59103;BME280;43999;51.660;5.616;2023-10-09T05:08:00;101712.75;;;15.10;100.00
59103;BME280;43999;51.660;5.616;2023-10-09T05:11:06;101697.94;;;15.07;100.00
59103;BME280;43999;51.660;5.616;2023-10-09T05:14:05;101705.78;;;15.09;100.00
59103;BME280;43999;51.660;5.616;2023-10-09T05:16:59;101703.13;;;15.09;100.00
59103;BME280;43999;51.660;5.616;2023-10-09T05:19:51;101700.50;;;15.09;100.00
59103;BME280;43999;51.660;5.616;2023-10-09T05:22:55;101705.78;;;15.09;100.00
59103;BME280;43999;51.660;5.616;2023-10-09T05:25:47;101714.56;;;15.09;100.00
59103;BME280;43999;51.660;5.616;2023-10-09T05:28:40;101729.53;;;15.09;100.00
59103;BME280;43999;51.660;5.616;2023-10-09T05:31:41;101724.44;;;15.05;100.00
59103;BME280;43999;51.660;5.616;2023-10-09T05:34:51;101746.31;;;15.08;100.00
59103;BME280;43999;51.660;5.616;2023-10-09T05:37:49;101741.88;;;15.08;100.00
59103;BME280;43999;51.660;5.616;2023-10-09T05:40:51;101733.13;;;15.08;100.00
59103;BME280;43999;51.660;5.616;2023-10-09T05:43:52;101743.69;;;15.08;100.00
59103;BME280;43999;51.660;5.616;2023-10-09T05:46:59;101741.88;;;15.08;100.00
59103;BME280;43999;51.660;5.616;2023-10-09T05:50:06;101729.53;;;15.09;100.00
59103;BME280;43999;51.660;5.616;2023-10-09T05:53:07;101733.88;;;15.10;100.00
59103;BME280;43999;51.660;5.616;2023-10-09T05:56:04;101747.91;;;15.10;100.00
59103;BME280;43999;51.660;5.616;2023-10-09T05:59:11;101753.47;;;15.05;100.00
59103;BME280;43999;51.660;5.616;2023-10-09T06:02:19;101774.41;;;15.09;100.00
59103;BME280;43999;51.660;5.616;2023-10-09T06:05:38;101764.81;;;15.08;100.00
59103;BME280;43999;51.660;5.616;2023-10-09T06:08:31;101762.16;;;15.08;100.00
59103;BME280;43999;51.660;5.616;2023-10-09T06:11:28;101758.66;;;15.07;100.00
59103;BME280;43999;51.660;5.616;2023-10-09T06:14:25;101753.47;;;15.05;100.00
59103;BME280;43999;51.660;5.616;2023-10-09T06:17:13;101753.38;;;15.07;100.00
59103;BME280;43999;51.660;5.616;2023-10-09T06:20:01;101763.84;;;15.09;100.00
59103;BME280;43999;51.660;5.616;2023-10-09T06:23:09;101761.19;;;15.09;100.00
59103;BME280;43999;51.660;5.616;2023-10-09T06:26:11;101751.50;;;15.09;100.00
59103;BME280;43999;51.660;5.616;2023-10-09T06:29:10;101776.13;;;15.10;100.00
59103;BME280;43999;51.660;5.616;2023-10-09T06:32:04;101773.38;;;15.11;100.00
59103;BME280;43999;51.660;5.616;2023-10-09T06:35:07;101782.16;;;15.12;100.00
59103;BME280;43999;51.660;5.616;2023-10-09T06:38:18;101762.66;;;15.14;100.00
59103;BME280;43999;51.660;5.616;2023-10-09T06:41:12;101757.47;;;15.13;100.00
59103;BME280;43999;51.660;5.616;2023-10-09T06:44:22;101740.50;;;15.17;100.00
59103;BME280;43999;51.660;5.616;2023-10-09T06:47:30;101738.63;;;15.19;100.00
59103;BME280;43999;51.660;5.616;2023-10-09T06:50:24;101745.59;;;15.20;100.00
59103;BME280;43999;51.660;5.616;2023-10-09T06:53:12;101746.34;;;15.22;100.00
59103;BME280;43999;51.660;5.616;2023-10-09T06:56:00;101738.34;;;15.23;100.00
59103;BME280;43999;51.660;5.616;2023-10-09T06:58:54;101759.38;;;15.25;100.00
59103;BME280;43999;51.660;5.616;2023-10-09T07:02:12;101754.00;;;15.27;100.00
59103;BME280;43999;51.660;5.616;2023-10-09T07:05:15;101751.19;;;15.30;100.00
59103;BME280;43999;51.660;5.616;2023-10-09T07:08:06;101745.81;;;15.31;100.00
59103;BME280;43999;51.660;5.616;2023-10-09T07:11:14;101725.44;;;15.33;100.00
59103;BME280;43999;51.660;5.616;2023-10-09T07:14:24;101711.94;;;15.38;100.00
59103;BME280;43999;51.660;5.616;2023-10-09T07:17:18;101705.75;;;15.39;100.00
59103;BME280;43999;51.660;5.616;2023-10-09T07:20:11;101753.19;;;15.40;100.00
59103;BME280;43999;51.660;5.616;2023-10-09T07:23:03;101767.13;;;15.42;100.00
59103;BME280;43999;51.660;5.616;2023-10-09T07:26:05;101757.34;;;15.45;100.00
59103;BME280;43999;51.660;5.616;2023-10-09T07:29:05;101770.38;;;15.48;100.00
59103;BME280;43999;51.660;5.616;2023-10-09T07:32:10;101776.31;;;15.51;100.00
59103;BME280;43999;51.660;5.616;2023-10-09T07:35:08;101787.53;;;15.55;100.00
59103;BME280;43999;51.660;5.616;2023-10-09T07:38:20;101805.09;;;15.56;100.00
59103;BME280;43999;51.660;5.616;2023-10-09T07:41:11;101796.25;;;15.57;100.00
59103;BME280;43999;51.660;5.616;2023-10-09T07:43:59;101791.72;;;15.59;100.00
59103;BME280;43999;51.660;5.616;2023-10-09T07:47:06;101809.34;;;15.58;100.00
59103;BME280;43999;51.660;5.616;2023-10-09T07:50:12;101808.50;;;15.58;100.00
59103;BME280;43999;51.660;5.616;2023-10-09T07:53:13;101795.97;;;15.62;100.00
59103;BME280;43999;51.660;5.616;2023-10-09T07:56:13;101775.75;;;15.60;100.00
59103;BME280;43999;51.660;5.616;2023-10-09T07:59:09;101765.19;;;15.60;100.00
59103;BME280;43999;51.660;5.616;2023-10-09T08:02:00;101764.19;;;15.63;100.00
59103;BME280;43999;51.660;5.616;2023-10-09T08:04:52;101766.81;;;15.63;100.00
59103;BME280;43999;51.660;5.616;2023-10-09T08:07:41;101781.59;;;15.66;100.00
59103;BME280;43999;51.660;5.616;2023-10-09T08:10:58;101778.78;;;15.69;100.00
59103;BME280;43999;51.660;5.616;2023-10-09T08:14:07;101771.63;;;15.71;100.00
59103;BME280;43999;51.660;5.616;2023-10-09T08:17:10;101751.06;;;15.76;100.00
59103;BME280;43999;51.660;5.616;2023-10-09T08:20:09;101741.16;;;15.80;100.00
59103;BME280;43999;51.660;5.616;2023-10-09T08:22:59;101724.19;;;15.84;100.00
59103;BME280;43999;51.660;5.616;2023-10-09T08:25:51;101718.72;;;15.87;100.00
59103;BME280;43999;51.660;5.616;2023-10-09T08:28:58;101722.00;;;15.90;100.00
59103;BME280;43999;51.660;5.616;2023-10-09T08:32:05;101724.34;;;15.95;100.00
59103;BME280;43999;51.660;5.616;2023-10-09T08:35:34;101737.94;;;16.03;100.00
59103;BME280;43999;51.660;5.616;2023-10-09T08:38:36;101737.56;;;16.09;100.00
59103;BME280;43999;51.660;5.616;2023-10-09T08:41:24;101744.91;;;16.19;100.00
59103;BME280;43999;51.660;5.616;2023-10-09T08:44:20;101755.00;;;16.26;100.00
59103;BME280;43999;51.660;5.616;2023-10-09T08:47:13;101762.53;;;16.33;100.00
59103;BME280;43999;51.660;5.616;2023-10-09T08:50:01;101794.66;;;16.41;100.00
59103;BME280;43999;51.660;5.616;2023-10-09T08:52:58;101775.66;;;16.48;100.00
59103;BME280;43999;51.660;5.616;2023-10-09T08:55:46;101787.44;;;16.57;100.00
59103;BME280;43999;51.660;5.616;2023-10-09T08:58:36;101799.44;;;16.63;100.00
59103;BME280;43999;51.660;5.616;2023-10-09T09:01:28;101807.81;;;16.70;100.00
59103;BME280;43999;51.660;5.616;2023-10-09T09:07:26;101805.53;;;16.78;100.00
59103;BME280;43999;51.660;5.616;2023-10-09T09:10:30;101815.56;;;16.87;100.00
59103;BME280;43999;51.660;5.616;2023-10-09T09:13:36;101807.22;;;16.93;100.00
59103;BME280;43999;51.660;5.616;2023-10-09T09:16:25;101812.00;;;17.01;100.00
59103;BME280;43999;51.660;5.616;2023-10-09T09:19:31;101816.47;;;17.13;100.00
59103;BME280;43999;51.660;5.616;2023-10-09T09:22:20;101808.13;;;17.19;100.00
59103;BME280;43999;51.660;5.616;2023-10-09T09:25:09;101808.69;;;17.25;100.00
59103;BME280;43999;51.660;5.616;2023-10-09T09:27:58;101814.50;;;17.30;100.00
59103;BME280;43999;51.660;5.616;2023-10-09T09:31:09;101812.50;;;17.33;100.00
59103;BME280;43999;51.660;5.616;2023-10-09T09:34:04;101816.53;;;17.39;100.00
59103;BME280;43999;51.660;5.616;2023-10-09T09:37:01;101823.97;;;17.47;100.00
59103;BME280;43999;51.660;5.616;2023-10-09T09:39:52;101818.38;;;17.51;100.00
59103;BME280;43999;51.660;5.616;2023-10-09T09:42:47;101824.97;;;17.59;100.00
59103;BME280;43999;51.660;5.616;2023-10-09T09:45:40;101836.81;;;17.66;100.00
59103;BME280;43999;51.660;5.616;2023-10-09T09:48:38;101835.34;;;17.74;100.00
59103;BME280;43999;51.660;5.616;2023-10-09T09:51:30;101825.06;;;17.83;100.00
59103;BME280;43999;51.660;5.616;2023-10-09T09:54:22;101821.91;;;17.90;100.00
59103;BME280;43999;51.660;5.616;2023-10-09T09:57:14;101827.00;;;17.94;100.00
59103;BME280;43999;51.660;5.616;2023-10-09T10:00:14;101830.94;;;18.01;100.00
59103;BME280;43999;51.660;5.616;2023-10-09T10:03:39;101836.66;;;18.07;100.00
59103;BME280;43999;51.660;5.616;2023-10-09T10:06:33;101830.19;;;18.12;100.00
59103;BME280;43999;51.660;5.616;2023-10-09T10:09:38;101843.75;;;18.20;100.00
59103;BME280;43999;51.660;5.616;2023-10-09T10:12:52;101836.22;;;18.26;100.00
59103;BME280;43999;51.660;5.616;2023-10-09T10:16:15;101843.53;;;18.36;100.00
59103;BME280;43999;51.660;5.616;2023-10-09T10:19:09;101843.09;;;18.42;100.00
59103;BME280;43999;51.660;5.616;2023-10-09T10:22:25;101834.44;;;18.51;100.00
59103;BME280;43999;51.660;5.616;2023-10-09T10:25:50;101833.66;;;18.62;100.00
59103;BME280;43999;51.660;5.616;2023-10-09T10:28:38;101830.47;;;18.70;100.00
59103;BME280;43999;51.660;5.616;2023-10-09T10:32:03;101830.56;;;18.81;100.00
59103;BME280;43999;51.660;5.616;2023-10-09T10:34:56;101827.03;;;18.93;100.00
59103;BME280;43999;51.660;5.616;2023-10-09T10:37:47;101836.75;;;19.06;100.00
59103;BME280;43999;51.660;5.616;2023-10-09T10:40:45;101844.75;;;19.17;100.00
59103;BME280;43999;51.660;5.616;2023-10-09T10:43:46;101832.38;;;19.29;100.00
59103;BME280;43999;51.660;5.616;2023-10-09T10:46:46;101825.72;;;19.34;100.00
59103;BME280;43999;51.660;5.616;2023-10-09T10:49:45;101828.03;;;19.39;100.00
59103;BME280;43999;51.660;5.616;2023-10-09T10:52:40;101830.00;;;19.48;100.00
59103;BME280;43999;51.660;5.616;2023-10-09T10:55:56;101834.00;;;19.54;100.00
59103;BME280;43999;51.660;5.616;2023-10-09T10:59:11;101830.16;;;19.58;100.00
59103;BME280;43999;51.660;5.616;2023-10-09T11:02:00;101830.53;;;19.65;100.00
59103;BME280;43999;51.660;5.616;2023-10-09T11:04:48;101833.78;;;19.68;100.00
59103;BME280;43999;51.660;5.616;2023-10-09T11:07:57;101836.97;;;19.74;100.00
59103;BME280;43999;51.660;5.616;2023-10-09T11:10:46;101843.53;;;19.81;100.00
59103;BME280;43999;51.660;5.616;2023-10-09T11:13:38;101841.22;;;19.87;100.00
59103;BME280;43999;51.660;5.616;2023-10-09T11:16:41;101832.63;;;19.95;100.00
59103;BME280;43999;51.660;5.616;2023-10-09T11:19:31;101828.53;;;20.02;100.00
59103;BME280;43999;51.660;5.616;2023-10-09T11:22:20;101833.50;;;20.07;100.00
59103;BME280;43999;51.660;5.616;2023-10-09T11:25:18;101828.78;;;20.11;100.00
59103;BME280;43999;51.660;5.616;2023-10-09T11:28:21;101832.66;;;20.18;100.00
59103;BME280;43999;51.660;5.616;2023-10-09T11:31:17;101836.28;;;20.28;100.00
59103;BME280;43999;51.660;5.616;2023-10-09T11:34:20;101835.69;;;20.36;100.00
59103;BME280;43999;51.660;5.616;2023-10-09T11:37:27;101839.91;;;20.38;100.00
59103;BME280;43999;51.660;5.616;2023-10-09T11:40:33;101833.50;;;20.41;100.00
59103;BME280;43999;51.660;5.616;2023-10-09T11:43:54;101827.34;;;20.40;100.00
59103;BME280;43999;51.660;5.616;2023-10-09T11:47:11;101830.84;;;20.41;100.00
59103;BME280;43999;51.660;5.616;2023-10-09T11:50:06;101827.34;;;20.40;100.00
59103;BME280;43999;51.660;5.616;2023-10-09T11:53:00;101827.22;;;20.42;100.00
59103;BME280;43999;51.660;5.616;2023-10-09T11:56:05;101834.09;;;20.45;100.00
59103;BME280;43999;51.660;5.616;2023-10-09T11:59:02;101840.28;;;20.45;100.00
59103;BME280;43999;51.660;5.616;2023-10-09T12:01:55;101840.16;;;20.47;100.00
59103;BME280;43999;51.660;5.616;2023-10-09T12:04:51;101837.50;;;20.47;100.00
59103;BME280;43999;51.660;5.616;2023-10-09T12:07:47;101839.16;;;20.48;100.00
59103;BME280;43999;51.660;5.616;2023-10-09T12:10:42;101824.19;;;20.47;100.00
59103;BME280;43999;51.660;5.616;2023-10-09T12:13:30;101838.56;;;20.44;100.00
59103;BME280;43999;51.660;5.616;2023-10-09T12:16:21;101837.13;;;20.40;100.00
59103;BME280;43999;51.660;5.616;2023-10-09T12:19:11;101825.63;;;20.39;100.00
59103;BME280;43999;51.660;5.616;2023-10-09T12:22:02;101823.09;;;20.38;100.00
59103;BME280;43999;51.660;5.616;2023-10-09T12:24:51;101823.94;;;20.38;100.00
59103;BME280;43999;51.660;5.616;2023-10-09T12:27:47;101815.94;;;20.38;100.00
59103;BME280;43999;51.660;5.616;2023-10-09T12:30:41;101811.38;;;20.40;100.00
59103;BME280;43999;51.660;5.616;2023-10-09T12:33:38;101807.59;;;20.43;100.00
59103;BME280;43999;51.660;5.616;2023-10-09T12:36:27;101805.66;;;20.45;100.00
59103;BME280;43999;51.660;5.616;2023-10-09T12:39:15;101809.88;;;20.48;100.00
59103;BME280;43999;51.660;5.616;2023-10-09T12:42:06;101802.13;;;20.45;100.00
59103;BME280;43999;51.660;5.616;2023-10-09T12:44:56;101794.41;;;20.41;100.00
59103;BME280;43999;51.660;5.616;2023-10-09T12:47:48;101792.84;;;20.39;100.00
59103;BME280;43999;51.660;5.616;2023-10-09T12:50:41;101780.38;;;20.39;100.00
59103;BME280;43999;51.660;5.616;2023-10-09T12:53:29;101779.28;;;20.42;100.00
59103;BME280;43999;51.660;5.616;2023-10-09T12:56:19;101776.13;;;20.48;100.00
59103;BME280;43999;51.660;5.616;2023-10-09T12:59:13;101784.47;;;20.55;100.00
59103;BME280;43999;51.660;5.616;2023-10-09T13:02:03;101776.09;;;20.59;100.00
59103;BME280;43999;51.660;5.616;2023-10-09T13:04:59;101787.25;;;20.65;100.00
59103;BME280;43999;51.660;5.616;2023-10-09T13:07:48;101778.03;;;20.69;100.00
59103;BME280;43999;51.660;5.616;2023-10-09T13:10:39;101783.00;;;20.73;100.00
59103;BME280;43999;51.660;5.616;2023-10-09T13:13:28;101795.69;;;20.81;100.00
59103;BME280;43999;51.660;5.616;2023-10-09T13:16:36;101790.09;;;20.84;100.00
59103;BME280;43999;51.660;5.616;2023-10-09T13:19:26;101785.22;;;20.89;100.00
59103;BME280;43999;51.660;5.616;2023-10-09T13:22:15;101793.81;;;20.93;100.00
59103;BME280;43999;51.660;5.616;2023-10-09T13:25:10;101796.50;;;20.93;100.00
59103;BME280;43999;51.660;5.616;2023-10-09T13:28:21;101791.16;;;20.93;100.00
59103;BME280;43999;51.660;5.616;2023-10-09T13:31:12;101807.97;;;20.93;100.00
59103;BME280;43999;51.660;5.616;2023-10-09T13:34:01;101816.56;;;20.97;100.00
59103;BME280;43999;51.660;5.616;2023-10-09T13:36:50;101811.84;;;21.01;100.00
59103;BME280;43999;51.660;5.616;2023-10-09T13:39:41;101813.50;;;21.02;100.00
59103;BME280;43999;51.660;5.616;2023-10-09T13:42:40;101812.16;;;21.07;100.00
59103;BME280;43999;51.660;5.616;2023-10-09T13:45:29;101798.47;;;21.12;100.00
59103;BME280;43999;51.660;5.616;2023-10-09T13:48:19;101801.69;;;21.16;100.00
59103;BME280;43999;51.660;5.616;2023-10-09T13:51:09;101799.88;;;21.16;100.00
59103;BME280;43999;51.660;5.616;2023-10-09T13:54:12;101810.75;;;21.24;100.00
59103;BME280;43999;51.660;5.616;2023-10-09T13:57:08;101800.81;;;21.26;100.00
59103;BME280;43999;51.660;5.616;2023-10-09T13:59:58;101808.53;;;21.29;100.00
59103;BME280;43999;51.660;5.616;2023-10-09T14:02:48;101807.56;;;21.30;100.00
59103;BME280;43999;51.660;5.616;2023-10-09T14:05:40;101806.44;;;21.33;100.00
59103;BME280;43999;51.660;5.616;2023-10-09T14:08:42;101801.72;;;21.37;100.00
59103;BME280;43999;51.660;5.616;2023-10-09T14:11:33;101805.94;;;21.39;100.00
59103;BME280;43999;51.660;5.616;2023-10-09T14:14:27;101796.00;;;21.41;100.00
59103;BME280;43999;51.660;5.616;2023-10-09T14:17:22;101787.63;;;21.46;100.00
59103;BME280;43999;51.660;5.616;2023-10-09T14:20:11;101797.16;;;21.48;100.00
59103;BME280;43999;51.660;5.616;2023-10-09T14:23:20;101784.81;;;21.47;100.00
59103;BME280;43999;51.660;5.616;2023-10-09T14:26:10;101788.44;;;21.46;100.00
59103;BME280;43999;51.660;5.616;2023-10-09T14:29:00;101784.22;;;21.44;100.00
59103;BME280;43999;51.660;5.616;2023-10-09T14:31:48;101794.03;;;21.43;100.00
59103;BME280;43999;51.660;5.616;2023-10-09T14:34:47;101788.25;;;21.38;100.00
59103;BME280;43999;51.660;5.616;2023-10-09T14:37:39;101793.59;;;21.38;100.00
59103;BME280;43999;51.660;5.616;2023-10-09T14:40:31;101791.63;;;21.40;100.00
59103;BME280;43999;51.660;5.616;2023-10-09T14:43:20;101793.06;;;21.44;100.00
59103;BME280;43999;51.660;5.616;2023-10-09T14:46:16;101789.28;;;21.47;100.00
59103;BME280;43999;51.660;5.616;2023-10-09T14:49:08;101792.81;;;21.47;100.00
59103;BME280;43999;51.660;5.616;2023-10-09T14:52:01;101791.38;;;21.43;100.00
59103;BME280;43999;51.660;5.616;2023-10-09T14:54:53;101787.53;;;21.36;100.00
59103;BME280;43999;51.660;5.616;2023-10-09T14:57:44;101784.56;;;21.29;100.00
59103;BME280;43999;51.660;5.616;2023-10-09T15:00:33;101776.50;;;21.20;100.00
59103;BME280;43999;51.660;5.616;2023-10-09T15:03:22;101774.47;;;21.12;100.00
59103;BME280;43999;51.660;5.616;2023-10-09T15:06:10;101782.97;;;21.06;100.00
59103;BME280;43999;51.660;5.616;2023-10-09T15:08:59;101786.53;;;20.95;100.00
59103;BME280;43999;51.660;5.616;2023-10-09T15:12:05;101783.81;;;20.85;100.00